Pilote Bx Quinoa — FGH4203 — position and weather

sailwx.info

Track history (hours):
 
Tides and Currents Weather Stations Pressure Air Temp Water Temp Dewpoint Dewpoint Depression Visibility Wind Speed Wind Dir Waves Ship Positions

Pilote Bx Quinoa

Last reported at 2018-Jun-19 15:39 UTC. Time now 2018-Jul-17 07:34 UTC.
Position N 45°34' W 001°04'.
Warning: this ship's position is 27 days out of date.

Type: Pilot. MMSI: 227094630.

Date/timePositionNaut miles runAvg speedWind from/ knotsBaromVisibWave heightAir tempDewpointWater temp
2018-Jun-19 15:39N 45°34' W 001°04'1 9.4
2018-Jun-19 15:30N 45°33' W 001°02'1 0.5
2018-Jun-19 12:45N 45°34' W 001°04'1 3.0
2018-Jun-19 12:30N 45°34' W 001°03'1 0.6
2018-Jun-19 11:22N 45°34' W 001°04'0 0.0
2018-Jun-19 11:00N 45°34' W 001°04'0 0.0
2018-Jun-19 10:30N 45°34' W 001°04'0 0.0
2018-Jun-19 10:00N 45°34' W 001°04'0 0.0
2018-Jun-19 09:30N 45°34' W 001°04'0 0.0
2018-Jun-19 09:00N 45°34' W 001°04'0 0.0
2018-Jun-19 06:18N 45°34' W 001°04'0 0.0
2018-Jun-19 00:40N 45°34' W 001°04'1 3.7
2018-Jun-19 00:31N 45°34' W 001°03'1 1.9
2018-Jun-19 00:01N 45°35' W 001°03'1 2.3
2018-Jun-18 23:30N 45°34' W 001°04'0 0.0
2018-Jun-18 23:01N 45°34' W 001°04'0 0.0
2018-Jun-18 19:33N 45°34' W 001°04'0 0.7
2018-Jun-18 19:30N 45°34' W 001°04'0 0.1
2018-Jun-18 17:42N 45°34' W 001°04'2 8.6
2018-Jun-18 17:30N 45°34' W 001°01'2 0.8
2018-Jun-18 15:23N 45°34' W 001°04'0 1.3
2018-Jun-18 15:00N 45°34' W 001°03'1 2.3
2018-Jun-18 14:30N 45°35' W 001°03'1 0.6
2018-Jun-18 12:16N 45°34' W 001°04'2 6.3
2018-Jun-18 12:00N 45°35' W 001°03'1 2.9
2018-Jun-18 11:30N 45°34' W 001°04'0 0.0
2018-Jun-18 08:34N 45°34' W 001°04'117.5
2018-Jun-18 08:30N 45°34' W 001°02'815.5
2018-Jun-18 08:00N 45°31' W 000°52'3 5.4
2018-Jun-18 07:30N 45°32' W 000°55'713.2
2018-Jun-18 07:00N 45°35' W 001°03'1 0.2
2018-Jun-18 00:28N 45°34' W 001°04'0 0.0
2018-Jun-17 21:10N 45°34' W 001°04'1 6.1
2018-Jun-17 21:00N 45°34' W 001°02'1 0.2
2018-Jun-17 17:13N 45°34' W 001°04'0 1.2
2018-Jun-17 17:00N 45°34' W 001°04'0 0.2
2018-Jun-17 15:13N 45°34' W 001°04'1 5.3
2018-Jun-17 15:00N 45°35' W 001°04'1 0.4
2018-Jun-17 11:45N 45°34' W 001°04'1 4.3
2018-Jun-17 11:30N 45°35' W 001°02'1 0.1
2018-Jun-17 04:15N 45°34' W 001°04'0 0.8
2018-Jun-17 04:00N 45°34' W 001°04'0 0.0
2018-Jun-16 23:03N 45°34' W 001°04'115.3
2018-Jun-16 23:00N 45°34' W 001°03'0 0.0
2018-Jun-16 14:18N 45°34' W 001°04'0 0.9
2018-Jun-16 14:00N 45°34' W 001°04'0 0.0
2018-Jun-16 04:35N 45°34' W 001°04'111.3
2018-Jun-16 04:30N 45°35' W 001°03'1 0.5
2018-Jun-16 02:46N 45°34' W 001°04'0 0.5
2018-Jun-16 02:30N 45°34' W 001°04'0 0.0
2018-Jun-15 22:30N 45°34' W 001°04'0 0.0
2018-Jun-15 14:24N 45°34' W 001°04'0 0.0
2018-Jun-15 07:46N 45°34' W 001°04'0 0.9
2018-Jun-15 07:30N 45°34' W 001°04'0 0.0
2018-Jun-15 02:49N 45°34' W 001°03'1 3.1
2018-Jun-15 02:31N 45°35' W 001°03'1 0.8
2018-Jun-15 01:12N 45°34' W 001°04'0 0.9
2018-Jun-15 01:00N 45°34' W 001°04'0 0.0
2018-Jun-14 23:24N 45°34' W 001°04'0 0.0
2018-Jun-14 14:58N 45°34' W 001°04'0 0.1
2018-Jun-14 14:30N 45°34' W 001°04'0 0.0
2018-Jun-14 01:45N 45°34' W 001°04'0 0.7
2018-Jun-14 01:30N 45°34' W 001°04'2 3.3
2018-Jun-14 01:01N 45°33' W 001°02'2 0.2
2018-Jun-13 14:35N 45°34' W 001°04'1 8.1
2018-Jun-13 14:30N 45°35' W 001°03'1 0.4
2018-Jun-13 12:47N 45°34' W 001°04'1 3.2
2018-Jun-13 12:31N 45°34' W 001°03'1 0.1
2018-Jun-13 03:01N 45°34' W 001°04'012.2
2018-Jun-13 03:01N 45°34' W 001°04'0 0.0
2018-Jun-12 20:33N 45°34' W 001°04'114.1
2018-Jun-12 20:30N 45°35' W 001°03'1 1.4
2018-Jun-12 20:00N 45°34' W 001°04'0 0.0
2018-Jun-12 13:13N 45°34' W 001°04'1 3.0
2018-Jun-12 13:00N 45°35' W 001°04'1 1.7
2018-Jun-12 12:30N 45°34' W 001°04'0 0.0
2018-Jun-12 11:58N 45°34' W 001°04'0 0.7
2018-Jun-12 11:30N 45°34' W 001°03'0 0.1
2018-Jun-12 08:47N 45°34' W 001°04'0 0.0
2018-Jun-12 08:30N 45°34' W 001°04'0 0.0
2018-Jun-12 08:00N 45°34' W 001°04'1 2.6
2018-Jun-12 07:30N 45°35' W 001°04'1 0.3
2018-Jun-12 02:24N 45°34' W 001°04'0 0.9
2018-Jun-12 02:00N 45°34' W 001°03'0 0.1
2018-Jun-11 19:41N 45°34' W 001°04'1 5.3
2018-Jun-11 19:30N 45°34' W 001°02'1 1.7
2018-Jun-11 18:56N 45°34' W 001°04'1 2.6
2018-Jun-11 18:30N 45°35' W 001°04'1 0.3
2018-Jun-11 15:05N 45°34' W 001°04'0 5.2
2018-Jun-11 15:00N 45°34' W 001°04'0 0.2
2018-Jun-11 12:31N 45°34' W 001°04'0 0.3
2018-Jun-11 12:30N 45°34' W 001°04'0 0.0
2018-Jun-11 09:19N 45°34' W 001°04'0 0.0
2018-Jun-11 09:00N 45°34' W 001°04'0 0.0
2018-Jun-11 08:11N 45°34' W 001°04'0 0.0
2018-Jun-11 08:00N 45°34' W 001°04'0 0.0
2018-Jun-11 07:29N 45°34' W 001°04'0 0.0
2018-Jun-11 06:55N 45°34' W 001°04'0 0.0
2018-Jun-11 01:14N 45°34' W 001°04'1 2.5
2018-Jun-11 01:00N 45°34' W 001°03'1 0.0
2018-Jun-09 23:34N 45°34' W 001°04'0 1.5
2018-Jun-09 23:30N 45°34' W 001°04'  
Track history (hours):
 
Tides and Currents Weather Stations Pressure Air Temp Water Temp Dewpoint Dewpoint Depression Visibility Wind Speed Wind Dir Waves Ship Positions

Pilote Bx Quinoa

Last reported at 2018-Jun-19 15:39 UTC. Time now 2018-Jul-17 07:34 UTC.
Position N 45°34' W 001°04'.
Warning: this ship's position is 27 days out of date.

Type: Pilot. MMSI: 227094630.

Date/timePositionNaut miles runAvg speedWind from/ knotsBaromVisibWave heightAir tempDewpointWater temp
2018-Jun-19 15:39N 45°34' W 001°04'1 9.4
2018-Jun-19 15:30N 45°33' W 001°02'1 0.5
2018-Jun-19 12:45N 45°34' W 001°04'1 3.0
2018-Jun-19 12:30N 45°34' W 001°03'1 0.6
2018-Jun-19 11:22N 45°34' W 001°04'0 0.0
2018-Jun-19 11:00N 45°34' W 001°04'0 0.0
2018-Jun-19 10:30N 45°34' W 001°04'0 0.0
2018-Jun-19 10:00N 45°34' W 001°04'0 0.0
2018-Jun-19 09:30N 45°34' W 001°04'0 0.0
2018-Jun-19 09:00N 45°34' W 001°04'0 0.0
2018-Jun-19 06:18N 45°34' W 001°04'0 0.0
2018-Jun-19 00:40N 45°34' W 001°04'1 3.7
2018-Jun-19 00:31N 45°34' W 001°03'1 1.9
2018-Jun-19 00:01N 45°35' W 001°03'1 2.3
2018-Jun-18 23:30N 45°34' W 001°04'0 0.0
2018-Jun-18 23:01N 45°34' W 001°04'0 0.0
2018-Jun-18 19:33N 45°34' W 001°04'0 0.7
2018-Jun-18 19:30N 45°34' W 001°04'0 0.1
2018-Jun-18 17:42N 45°34' W 001°04'2 8.6
2018-Jun-18 17:30N 45°34' W 001°01'2 0.8
2018-Jun-18 15:23N 45°34' W 001°04'0 1.3
2018-Jun-18 15:00N 45°34' W 001°03'1 2.3
2018-Jun-18 14:30N 45°35' W 001°03'1 0.6
2018-Jun-18 12:16N 45°34' W 001°04'2 6.3
2018-Jun-18 12:00N 45°35' W 001°03'1 2.9
2018-Jun-18 11:30N 45°34' W 001°04'0 0.0
2018-Jun-18 08:34N 45°34' W 001°04'117.5
2018-Jun-18 08:30N 45°34' W 001°02'815.5
2018-Jun-18 08:00N 45°31' W 000°52'3 5.4
2018-Jun-18 07:30N 45°32' W 000°55'713.2
2018-Jun-18 07:00N 45°35' W 001°03'1 0.2
2018-Jun-18 00:28N 45°34' W 001°04'0 0.0
2018-Jun-17 21:10N 45°34' W 001°04'1 6.1
2018-Jun-17 21:00N 45°34' W 001°02'1 0.2
2018-Jun-17 17:13N 45°34' W 001°04'0 1.2
2018-Jun-17 17:00N 45°34' W 001°04'0 0.2
2018-Jun-17 15:13N 45°34' W 001°04'1 5.3
2018-Jun-17 15:00N 45°35' W 001°04'1 0.4
2018-Jun-17 11:45N 45°34' W 001°04'1 4.3
2018-Jun-17 11:30N 45°35' W 001°02'1 0.1
2018-Jun-17 04:15N 45°34' W 001°04'0 0.8
2018-Jun-17 04:00N 45°34' W 001°04'0 0.0
2018-Jun-16 23:03N 45°34' W 001°04'115.3
2018-Jun-16 23:00N 45°34' W 001°03'0 0.0
2018-Jun-16 14:18N 45°34' W 001°04'0 0.9
2018-Jun-16 14:00N 45°34' W 001°04'0 0.0
2018-Jun-16 04:35N 45°34' W 001°04'111.3
2018-Jun-16 04:30N 45°35' W 001°03'1 0.5
2018-Jun-16 02:46N 45°34' W 001°04'0 0.5
2018-Jun-16 02:30N 45°34' W 001°04'0 0.0
2018-Jun-15 22:30N 45°34' W 001°04'0 0.0
2018-Jun-15 14:24N 45°34' W 001°04'0 0.0
2018-Jun-15 07:46N 45°34' W 001°04'0 0.9
2018-Jun-15 07:30N 45°34' W 001°04'0 0.0
2018-Jun-15 02:49N 45°34' W 001°03'1 3.1
2018-Jun-15 02:31N 45°35' W 001°03'1 0.8
2018-Jun-15 01:12N 45°34' W 001°04'0 0.9
2018-Jun-15 01:00N 45°34' W 001°04'0 0.0
2018-Jun-14 23:24N 45°34' W 001°04'0 0.0
2018-Jun-14 14:58N 45°34' W 001°04'0 0.1
2018-Jun-14 14:30N 45°34' W 001°04'0 0.0
2018-Jun-14 01:45N 45°34' W 001°04'0 0.7
2018-Jun-14 01:30N 45°34' W 001°04'2 3.3
2018-Jun-14 01:01N 45°33' W 001°02'2 0.2
2018-Jun-13 14:35N 45°34' W 001°04'1 8.1
2018-Jun-13 14:30N 45°35' W 001°03'1 0.4
2018-Jun-13 12:47N 45°34' W 001°04'1 3.2
2018-Jun-13 12:31N 45°34' W 001°03'1 0.1
2018-Jun-13 03:01N 45°34' W 001°04'012.2
2018-Jun-13 03:01N 45°34' W 001°04'0 0.0
2018-Jun-12 20:33N 45°34' W 001°04'114.1
2018-Jun-12 20:30N 45°35' W 001°03'1 1.4
2018-Jun-12 20:00N 45°34' W 001°04'0 0.0
2018-Jun-12 13:13N 45°34' W 001°04'1 3.0
2018-Jun-12 13:00N 45°35' W 001°04'1 1.7
2018-Jun-12 12:30N 45°34' W 001°04'0 0.0
2018-Jun-12 11:58N 45°34' W 001°04'0 0.7
2018-Jun-12 11:30N 45°34' W 001°03'0 0.1
2018-Jun-12 08:47N 45°34' W 001°04'0 0.0
2018-Jun-12 08:30N 45°34' W 001°04'0 0.0
2018-Jun-12 08:00N 45°34' W 001°04'1 2.6
2018-Jun-12 07:30N 45°35' W 001°04'1 0.3
2018-Jun-12 02:24N 45°34' W 001°04'0 0.9
2018-Jun-12 02:00N 45°34' W 001°03'0 0.1
2018-Jun-11 19:41N 45°34' W 001°04'1 5.3
2018-Jun-11 19:30N 45°34' W 001°02'1 1.7
2018-Jun-11 18:56N 45°34' W 001°04'1 2.6
2018-Jun-11 18:30N 45°35' W 001°04'1 0.3
2018-Jun-11 15:05N 45°34' W 001°04'0 5.2
2018-Jun-11 15:00N 45°34' W 001°04'0 0.2
2018-Jun-11 12:31N 45°34' W 001°04'0 0.3
2018-Jun-11 12:30N 45°34' W 001°04'0 0.0
2018-Jun-11 09:19N 45°34' W 001°04'0 0.0
2018-Jun-11 09:00N 45°34' W 001°04'0 0.0
2018-Jun-11 08:11N 45°34' W 001°04'0 0.0
2018-Jun-11 08:00N 45°34' W 001°04'0 0.0
2018-Jun-11 07:29N 45°34' W 001°04'0 0.0
2018-Jun-11 06:55N 45°34' W 001°04'0 0.0
2018-Jun-11 01:14N 45°34' W 001°04'1 2.5
2018-Jun-11 01:00N 45°34' W 001°03'1 0.0
2018-Jun-09 23:34N 45°34' W 001°04'0 1.5
2018-Jun-09 23:30N 45°34' W 001°04'  

Dump ship's entire track history